createdAt,value
2017-12-13T00:01:23.507Z,84.10
2017-12-13T00:03:51.132Z,84.40
2017-12-13T00:06:18.819Z,84.30
2017-12-13T00:11:14.072Z,83.30
2017-12-13T00:13:42.157Z,83.50
2017-12-13T00:16:09.768Z,83.60
2017-12-13T00:18:37.396Z,83.70
2017-12-13T00:21:05.064Z,83.60
2017-12-13T00:23:34.189Z,83.30
2017-12-13T00:26:01.822Z,83.40
2017-12-13T00:28:29.504Z,83.30
2017-12-13T00:30:57.127Z,83.10
2017-12-13T00:33:24.757Z,83.50
2017-12-13T00:35:52.435Z,83.70
2017-12-13T00:38:20.051Z,83.20
2017-12-13T00:40:47.693Z,83.20
2017-12-13T00:43:15.479Z,84.00
2017-12-13T00:45:43.121Z,84.20
2017-12-13T00:48:10.736Z,84.40
2017-12-13T00:53:17.503Z,84.70
2017-12-13T00:55:46.144Z,84.10
2017-12-13T00:58:13.763Z,83.60
2017-12-13T01:00:41.385Z,82.60
2017-12-13T01:03:09.063Z,82.10
2017-12-13T01:05:36.681Z,82.10
2017-12-13T01:08:04.310Z,82.60
2017-12-13T01:10:32.368Z,82.60
2017-12-13T01:13:00.948Z,82.90
2017-12-13T01:15:28.567Z,83.10
2017-12-13T01:17:56.249Z,83.10
2017-12-13T01:20:24.274Z,83.30
2017-12-13T01:22:51.896Z,83.10
2017-12-13T01:25:19.675Z,82.90
2017-12-13T01:27:48.250Z,83.10
2017-12-13T01:30:15.878Z,83.40
2017-12-13T01:32:44.490Z,82.80
2017-12-13T01:35:12.118Z,82.80
2017-12-13T01:37:39.754Z,82.90
2017-12-13T01:40:07.743Z,83.00
2017-12-13T01:42:35.372Z,83.20
2017-12-13T01:45:02.990Z,83.20
2017-12-13T01:47:30.699Z,83.30
2017-12-13T01:49:58.322Z,83.30
2017-12-13T01:52:25.946Z,83.80
2017-12-13T01:54:53.650Z,83.90
2017-12-13T01:57:21.268Z,83.80
2017-12-13T01:59:48.893Z,83.90
2017-12-13T02:02:16.573Z,84.20
2017-12-13T02:07:12.660Z,84.70
2017-12-13T02:09:40.364Z,84.60
2017-12-13T02:12:08.733Z,84.40
2017-12-13T02:14:36.339Z,83.80
2017-12-13T02:19:43.108Z,83.90
2017-12-13T02:22:10.804Z,83.70
2017-12-13T02:24:38.421Z,83.20
2017-12-13T02:29:33.719Z,85.50
2017-12-13T02:32:01.336Z,85.10
2017-12-13T02:34:28.960Z,85.80
2017-12-13T02:36:56.636Z,86.00
2017-12-13T02:39:24.252Z,86.10
2017-12-13T02:41:53.201Z,85.80
2017-12-13T02:44:20.877Z,85.30
2017-12-13T02:46:49.209Z,85.50
2017-12-13T02:51:44.511Z,85.90
2017-12-13T02:54:13.078Z,86.00
2017-12-13T02:56:40.696Z,85.40
2017-12-13T02:59:08.379Z,84.50
2017-12-13T03:01:36.007Z,85.30
2017-12-13T03:04:04.475Z,85.60
2017-12-13T03:08:59.780Z,84.80
2017-12-13T03:11:27.405Z,84.00
2017-12-13T03:13:55.073Z,83.60
2017-12-13T03:16:22.728Z,82.90
2017-12-13T03:18:50.348Z,82.70
2017-12-13T03:21:18.043Z,82.90
2017-12-13T03:23:45.695Z,82.60
2017-12-13T03:26:13.315Z,82.60
2017-12-13T03:28:41.001Z,82.70
2017-12-13T03:31:08.636Z,83.30
2017-12-13T03:36:06.161Z,84.30
2017-12-13T03:38:33.784Z,84.70
2017-12-13T03:41:02.293Z,84.80
2017-12-13T03:46:09.074Z,84.10
2017-12-13T03:48:37.091Z,84.00
2017-12-13T03:51:04.649Z,83.50
2017-12-13T03:53:32.845Z,83.20
2017-12-13T03:56:00.541Z,83.20
2017-12-13T03:58:28.182Z,82.80
2017-12-13T04:00:55.805Z,82.90
2017-12-13T04:03:23.487Z,83.10
2017-12-13T04:05:51.110Z,83.60
2017-12-13T04:08:18.730Z,84.40
2017-12-13T04:10:46.423Z,85.20
2017-12-13T04:13:14.048Z,85.70
2017-12-13T04:15:44.015Z,86.40
2017-12-13T04:18:11.705Z,87.10
2017-12-13T04:20:39.326Z,87.30
2017-12-13T04:23:06.946Z,86.60
2017-12-13T04:25:35.446Z,86.40
2017-12-13T04:28:03.070Z,85.70
2017-12-13T04:30:31.499Z,85.00
2017-12-13T04:32:59.236Z,84.60
2017-12-13T04:35:26.862Z,85.10
2017-12-13T04:37:54.487Z,86.30
2017-12-13T04:40:22.168Z,86.20
2017-12-13T04:42:49.783Z,87.80
2017-12-13T04:45:17.414Z,88.00
2017-12-13T04:47:45.110Z,88.70
2017-12-13T04:50:12.734Z,89.10
2017-12-13T04:52:40.351Z,89.40
2017-12-13T04:55:09.795Z,89.40
2017-12-13T04:57:35.716Z,87.90
2017-12-13T05:00:03.342Z,88.30
2017-12-13T05:02:31.035Z,87.90
2017-12-13T05:04:59.643Z,86.30
2017-12-13T05:07:28.600Z,87.30
2017-12-13T05:15:05.069Z,86.40
2017-12-13T05:17:32.697Z,86.40
2017-12-13T05:20:00.311Z,86.40
2017-12-13T05:24:55.622Z,86.10
2017-12-13T05:27:23.252Z,85.90
2017-12-13T05:29:50.956Z,85.10
2017-12-13T05:32:18.572Z,85.80
2017-12-13T05:34:46.205Z,86.40
2017-12-13T05:37:13.871Z,86.90
2017-12-13T05:39:41.512Z,86.50
2017-12-13T05:42:09.165Z,86.00
2017-12-13T05:44:36.866Z,86.20
2017-12-13T05:47:04.506Z,85.60
2017-12-13T05:49:32.131Z,85.30
2017-12-13T05:52:01.682Z,85.30
2017-12-13T05:54:31.255Z,85.10
2017-12-13T05:56:59.888Z,85.20
2017-12-13T05:59:27.564Z,85.10
2017-12-13T06:01:55.197Z,85.50
2017-12-13T06:04:22.930Z,85.60
2017-12-13T06:06:50.555Z,85.40
2017-12-13T06:09:18.182Z,86.10
2017-12-13T06:11:45.865Z,85.20
2017-12-13T06:14:13.495Z,86.10
2017-12-13T06:16:41.117Z,85.70
2017-12-13T06:19:09.104Z,84.50
2017-12-13T06:21:36.730Z,84.90
2017-12-13T06:24:04.350Z,85.20
2017-12-13T06:26:32.027Z,84.80
2017-12-13T06:28:59.649Z,85.50
2017-12-13T06:31:27.276Z,85.30
2017-12-13T06:36:22.602Z,85.40
2017-12-13T06:38:50.246Z,84.80
2017-12-13T06:43:59.033Z,84.70
2017-12-13T06:46:26.721Z,84.70
2017-12-13T06:48:54.350Z,84.30
2017-12-13T06:51:21.978Z,83.80
2017-12-13T06:56:17.289Z,84.60
2017-12-13T06:58:44.915Z,83.50
2017-12-13T07:01:12.645Z,83.50
2017-12-13T07:03:41.219Z,83.50
2017-12-13T07:06:08.842Z,83.60
2017-12-13T07:08:36.526Z,83.30
2017-12-13T07:11:04.149Z,84.00
2017-12-13T07:13:32.163Z,83.10
2017-12-13T07:15:59.867Z,82.90
2017-12-13T07:18:27.495Z,82.80
2017-12-13T07:20:55.120Z,83.50
2017-12-13T07:23:22.831Z,83.50
2017-12-13T07:25:50.442Z,83.40
2017-12-13T07:28:18.067Z,83.50
2017-12-13T07:30:45.751Z,84.20
2017-12-13T07:33:14.320Z,83.60
2017-12-13T07:35:41.945Z,83.80
2017-12-13T07:38:09.628Z,83.90
2017-12-13T07:40:37.310Z,83.60
2017-12-13T07:43:04.882Z,83.90
2017-12-13T07:45:33.462Z,84.20
2017-12-13T07:48:01.867Z,83.80
2017-12-13T07:50:30.436Z,83.90
2017-12-13T07:55:26.616Z,83.50
2017-12-13T07:57:54.327Z,82.60
2017-12-13T08:00:21.947Z,82.50
2017-12-13T08:02:49.570Z,82.40
2017-12-13T08:10:23.958Z,81.70
2017-12-13T08:12:51.657Z,82.40
2017-12-13T08:15:19.280Z,82.20
2017-12-13T08:17:47.667Z,82.30
2017-12-13T08:20:15.340Z,82.00
2017-12-13T08:22:42.969Z,82.40
2017-12-13T08:25:10.593Z,82.10
2017-12-13T08:27:38.294Z,82.30
2017-12-13T08:30:05.910Z,82.40
2017-12-13T08:32:33.532Z,82.40
2017-12-13T08:35:01.216Z,82.40
2017-12-13T08:37:28.833Z,82.00
2017-12-13T08:39:58.409Z,82.50
2017-12-13T08:42:26.081Z,82.50
2017-12-13T08:44:53.707Z,81.10
2017-12-13T08:47:21.326Z,80.50
2017-12-13T08:49:49.020Z,73.20
2017-12-13T08:52:16.637Z,78.70
2017-12-13T08:54:44.259Z,73.70
2017-12-13T08:59:39.558Z,73.50
2017-12-13T09:02:08.002Z,68.30
2017-12-13T09:04:35.663Z,69.30
2017-12-13T09:07:03.286Z,68.10
2017-12-13T09:09:30.906Z,69.80
2017-12-13T09:11:58.581Z,67.90
2017-12-13T09:14:26.196Z,67.80
2017-12-13T09:16:53.813Z,67.90
2017-12-13T09:21:49.112Z,67.00
2017-12-13T09:24:16.732Z,69.10
2017-12-13T09:26:45.259Z,69.40
2017-12-13T09:29:12.881Z,68.80
2017-12-13T09:34:21.644Z,65.60
2017-12-13T09:36:49.260Z,64.70
2017-12-13T09:39:16.878Z,63.10
2017-12-13T09:41:44.574Z,66.20
2017-12-13T09:44:12.190Z,65.00
2017-12-13T09:46:39.814Z,64.40
2017-12-13T09:49:07.484Z,65.40
2017-12-13T09:51:35.104Z,64.40
2017-12-13T09:54:02.719Z,65.10
2017-12-13T09:56:30.409Z,67.10
2017-12-13T09:58:58.023Z,66.60
2017-12-13T10:01:25.641Z,63.10
2017-12-13T10:03:53.312Z,62.50
2017-12-13T10:06:20.929Z,62.50
2017-12-13T10:08:48.550Z,64.10
2017-12-13T10:11:16.243Z,64.00
2017-12-13T10:13:44.816Z,62.00
2017-12-13T10:16:12.431Z,64.80
2017-12-13T10:18:41.056Z,61.80
2017-12-13T10:21:08.674Z,60.00
2017-12-13T10:23:36.298Z,62.40
2017-12-13T10:26:03.992Z,60.00
2017-12-13T10:28:31.603Z,58.40
2017-12-13T10:30:59.942Z,61.40
2017-12-13T10:33:27.612Z,59.50
2017-12-13T10:35:55.234Z,60.80
2017-12-13T10:38:22.852Z,61.30
2017-12-13T10:40:50.536Z,60.30
2017-12-13T10:43:18.138Z,59.80
2017-12-13T10:50:52.850Z,60.90
2017-12-13T10:53:20.466Z,61.10
2017-12-13T10:55:49.091Z,60.70
2017-12-13T10:58:16.707Z,58.50
2017-12-13T11:00:44.320Z,57.70
2017-12-13T11:03:12.018Z,58.90
2017-12-13T11:05:39.611Z,58.70
2017-12-13T11:08:07.230Z,61.40
2017-12-13T11:10:34.929Z,63.50
2017-12-13T11:13:02.547Z,63.10
2017-12-13T11:15:30.170Z,63.50
2017-12-13T11:17:57.864Z,62.60
2017-12-13T11:20:25.478Z,63.20
2017-12-13T11:22:53.097Z,61.80
2017-12-13T11:25:21.248Z,66.40
2017-12-13T11:27:48.865Z,64.20
2017-12-13T11:30:16.484Z,61.80
2017-12-13T11:32:44.987Z,63.60
2017-12-13T11:35:12.601Z,58.20
2017-12-13T11:37:40.219Z,59.20
2017-12-13T11:40:07.891Z,58.80
2017-12-13T11:42:35.509Z,57.50
2017-12-13T11:45:03.130Z,59.30
2017-12-13T11:47:30.828Z,58.40
2017-12-13T11:49:58.445Z,56.20
2017-12-13T11:52:26.067Z,56.30
2017-12-13T11:54:53.764Z,57.90
2017-12-13T11:57:21.385Z,55.60
2017-12-13T11:59:49.006Z,55.90
2017-12-13T12:02:16.682Z,53.60
2017-12-13T12:04:44.285Z,54.20
2017-12-13T12:07:11.902Z,57.60
2017-12-13T12:09:39.577Z,56.30
2017-12-13T12:14:47.203Z,55.60
2017-12-13T12:17:14.819Z,55.70
2017-12-13T12:19:42.471Z,52.50
2017-12-13T12:22:10.154Z,53.00
2017-12-13T12:24:37.759Z,51.80
2017-12-13T12:27:05.408Z,51.60
2017-12-13T12:29:33.075Z,51.00
2017-12-13T12:32:00.694Z,53.50
2017-12-13T12:34:28.314Z,51.50
2017-12-13T12:36:56.009Z,47.70
2017-12-13T12:39:23.622Z,50.70
2017-12-13T12:41:51.233Z,49.90
2017-12-13T12:44:18.908Z,48.90
2017-12-13T12:46:46.524Z,48.40
2017-12-13T12:51:41.838Z,51.30
2017-12-13T12:54:09.455Z,50.30
2017-12-13T12:56:37.078Z,51.20
2017-12-13T12:59:05.687Z,50.20
2017-12-13T13:01:33.309Z,49.50
2017-12-13T13:04:00.993Z,49.70
2017-12-13T13:06:28.690Z,49.10
2017-12-13T13:08:56.310Z,48.00
2017-12-13T13:11:23.931Z,50.00
2017-12-13T13:13:51.615Z,50.50
2017-12-13T13:18:46.855Z,50.30
2017-12-13T13:21:14.520Z,51.20
2017-12-13T13:23:42.172Z,53.30
2017-12-13T13:26:09.789Z,51.70
2017-12-13T13:28:37.479Z,51.50
2017-12-13T13:31:05.101Z,51.70
2017-12-13T13:33:32.715Z,50.60
2017-12-13T13:36:00.391Z,50.80
2017-12-13T13:38:28.009Z,51.70
2017-12-13T13:46:02.959Z,52.20
2017-12-13T13:48:30.449Z,54.20
2017-12-13T13:50:59.009Z,54.60
2017-12-13T13:53:26.623Z,54.90
2017-12-13T13:55:55.248Z,56.30
2017-12-13T14:00:51.429Z,60.40
2017-12-13T14:03:19.108Z,59.30
2017-12-13T14:05:46.725Z,60.90
2017-12-13T14:08:14.352Z,59.90
2017-12-13T14:10:42.018Z,60.60
2017-12-13T14:13:09.639Z,62.10
2017-12-13T14:15:37.257Z,63.10
2017-12-13T14:18:04.959Z,64.00
2017-12-13T14:20:32.588Z,63.80
2017-12-13T14:23:00.550Z,64.20
2017-12-13T14:25:28.240Z,64.10
2017-12-13T14:27:55.949Z,64.60
2017-12-13T14:30:23.482Z,64.60
2017-12-13T14:32:51.175Z,64.70
2017-12-13T14:35:18.791Z,64.00
2017-12-13T14:37:46.407Z,65.00
2017-12-13T14:40:14.092Z,64.20
2017-12-13T14:42:41.780Z,64.00
2017-12-13T14:45:09.326Z,65.10
2017-12-13T14:47:37.001Z,65.00
2017-12-13T14:50:04.617Z,66.20
2017-12-13T14:52:32.236Z,67.20
2017-12-13T14:54:59.915Z,68.00
2017-12-13T14:57:27.536Z,68.40
2017-12-13T14:59:55.155Z,69.00
2017-12-13T15:02:22.846Z,69.50
2017-12-13T15:04:50.464Z,68.40
2017-12-13T15:12:26.838Z,68.30
2017-12-13T15:14:54.542Z,69.40
2017-12-13T15:17:22.958Z,69.70
2017-12-13T15:19:50.576Z,69.60
2017-12-13T15:22:18.269Z,69.20
2017-12-13T15:24:46.754Z,69.30
2017-12-13T15:27:14.356Z,69.50
2017-12-13T15:29:42.025Z,70.50
2017-12-13T15:32:09.641Z,71.30
2017-12-13T15:34:37.252Z,71.80
2017-12-13T15:37:04.986Z,72.40
2017-12-13T15:42:11.758Z,73.00
2017-12-13T15:44:39.377Z,73.70
2017-12-13T15:47:06.986Z,72.70
2017-12-13T15:49:34.707Z,72.20
2017-12-13T15:52:02.329Z,72.80
2017-12-13T15:54:29.939Z,72.80
2017-12-13T15:56:57.640Z,73.10
2017-12-13T15:59:25.263Z,73.80
2017-12-13T16:01:52.881Z,73.20
2017-12-13T16:04:20.557Z,74.00
2017-12-13T16:06:48.176Z,73.80
2017-12-13T16:09:15.790Z,74.00
2017-12-13T16:11:43.483Z,75.00
2017-12-13T16:14:11.095Z,74.90
2017-12-13T16:16:38.718Z,74.10
2017-12-13T16:19:06.396Z,73.60
2017-12-13T16:24:01.640Z,75.20
2017-12-13T16:26:29.318Z,76.10
2017-12-13T16:28:56.942Z,76.60
2017-12-13T16:31:24.560Z,76.70
2017-12-13T16:33:52.262Z,77.20
2017-12-13T16:36:19.892Z,76.80
2017-12-13T16:38:47.530Z,76.60
2017-12-13T16:41:15.204Z,76.70
2017-12-13T16:43:42.840Z,77.70
2017-12-13T16:46:10.462Z,76.80
2017-12-13T16:48:38.141Z,76.60
2017-12-13T16:51:05.771Z,77.10
2017-12-13T16:56:01.079Z,76.20
2017-12-13T16:58:28.705Z,76.50
2017-12-13T17:03:37.336Z,77.10
2017-12-13T17:06:04.977Z,77.20
2017-12-13T17:08:32.605Z,77.60
2017-12-13T17:13:39.017Z,77.90
2017-12-13T17:16:06.688Z,76.80
2017-12-13T17:18:35.185Z,76.30
2017-12-13T17:21:02.875Z,75.60
2017-12-13T17:23:30.507Z,76.80
2017-12-13T17:25:58.211Z,79.10
2017-12-13T17:28:25.847Z,79.80
2017-12-13T17:30:54.363Z,80.80
2017-12-13T17:33:22.803Z,80.20
2017-12-13T17:35:50.431Z,79.50
2017-12-13T17:38:18.133Z,76.90
2017-12-13T17:40:45.750Z,77.10
2017-12-13T17:43:13.640Z,76.70
2017-12-13T17:45:41.356Z,76.60
2017-12-13T17:48:09.315Z,75.30
2017-12-13T17:50:36.943Z,75.00
2017-12-13T17:53:04.630Z,75.20
2017-12-13T17:55:32.259Z,73.80
2017-12-13T17:57:59.887Z,73.40
2017-12-13T18:00:27.598Z,72.10
2017-12-13T18:02:55.215Z,72.00
2017-12-13T18:05:22.836Z,72.70
2017-12-13T18:07:51.475Z,72.70
2017-12-13T18:10:19.099Z,75.40
2017-12-13T18:12:46.774Z,76.50
2017-12-13T18:15:15.386Z,78.30
2017-12-13T18:17:43.016Z,79.10
2017-12-13T18:20:10.637Z,79.70
2017-12-13T18:22:38.339Z,79.50
2017-12-13T18:25:05.952Z,78.80
2017-12-13T18:30:01.263Z,80.40
2017-12-13T18:32:28.887Z,80.70
2017-12-13T18:34:56.515Z,80.90
2017-12-13T18:40:03.312Z,79.90
2017-12-13T18:42:30.998Z,80.30
2017-12-13T18:44:58.624Z,80.00
2017-12-13T18:47:26.252Z,79.90
2017-12-13T18:52:24.261Z,80.90
2017-12-13T18:54:51.906Z,81.00
2017-12-13T18:57:19.606Z,80.90
2017-12-13T18:59:47.212Z,80.80
2017-12-13T19:02:14.835Z,80.90
2017-12-13T19:04:42.530Z,81.20
2017-12-13T19:07:10.168Z,81.20
2017-12-13T19:09:37.790Z,80.90
2017-12-13T19:12:05.562Z,80.40
2017-12-13T19:14:33.169Z,80.30
2017-12-13T19:17:00.790Z,79.60
2017-12-13T19:19:28.497Z,77.90
2017-12-13T19:21:56.959Z,76.20
2017-12-13T19:24:24.595Z,75.90
2017-12-13T19:26:52.301Z,76.10
2017-12-13T19:29:19.930Z,75.90
2017-12-13T19:31:47.571Z,75.10
2017-12-13T19:34:18.174Z,74.50
2017-12-13T19:36:42.907Z,74.20
2017-12-13T19:39:11.656Z,74.20
2017-12-13T19:41:39.390Z,74.90
2017-12-13T19:44:07.009Z,76.70
2017-12-13T19:46:34.664Z,78.00
2017-12-13T19:49:02.408Z,79.10
2017-12-13T19:51:30.119Z,78.80
2017-12-13T19:53:57.707Z,78.30
2017-12-13T19:58:53.023Z,75.20
2017-12-13T20:01:20.665Z,75.70
2017-12-13T20:06:27.504Z,76.10
2017-12-13T20:08:55.421Z,74.70
2017-12-13T20:11:22.999Z,74.80
2017-12-13T20:13:50.650Z,75.60
2017-12-13T20:16:18.329Z,77.20
2017-12-13T20:21:13.565Z,79.10
2017-12-13T20:23:41.471Z,78.80
2017-12-13T20:26:09.101Z,79.90
2017-12-13T20:28:36.698Z,80.30
2017-12-13T20:31:04.376Z,78.80
2017-12-13T20:33:32.055Z,78.90
2017-12-13T20:35:59.739Z,81.60
2017-12-13T20:38:27.367Z,81.50
2017-12-13T20:40:54.995Z,80.30
2017-12-13T20:43:24.594Z,80.90
2017-12-13T20:45:50.344Z,80.20
2017-12-13T20:50:45.667Z,82.90
2017-12-13T20:53:13.399Z,82.20
2017-12-13T20:55:40.990Z,81.40
2017-12-13T21:00:36.355Z,82.20
2017-12-13T21:03:04.026Z,82.40
2017-12-13T21:05:31.721Z,81.90
2017-12-13T21:08:00.707Z,82.60
2017-12-13T21:10:27.878Z,82.20
2017-12-13T21:15:23.208Z,81.30
2017-12-13T21:17:51.219Z,82.30
2017-12-13T21:20:18.830Z,82.40
2017-12-13T21:22:46.470Z,81.30
2017-12-13T21:25:14.089Z,81.30
2017-12-13T21:27:41.792Z,79.90
2017-12-13T21:30:09.405Z,78.40
2017-12-13T21:37:43.792Z,80.70
2017-12-13T21:40:11.412Z,80.70
2017-12-13T21:42:39.136Z,80.40
2017-12-13T21:45:06.765Z,80.40
2017-12-13T21:47:36.269Z,80.40
2017-12-13T21:50:02.067Z,80.00
2017-12-13T21:52:29.688Z,81.20
2017-12-13T21:54:59.024Z,80.30
2017-12-13T21:57:26.725Z,80.50
2017-12-13T21:59:54.343Z,78.20
2017-12-13T22:02:21.969Z,79.90
2017-12-13T22:04:49.679Z,81.10
2017-12-13T22:07:17.305Z,80.50
2017-12-13T22:12:24.516Z,78.20
2017-12-13T22:14:52.135Z,77.50
2017-12-13T22:19:47.620Z,79.60
2017-12-13T22:22:15.072Z,80.20
2017-12-13T22:24:42.691Z,82.00
2017-12-13T22:27:10.383Z,81.90
2017-12-13T22:29:38.006Z,80.80
2017-12-13T22:32:16.608Z,81.40
2017-12-13T22:34:43.650Z,80.90
2017-12-13T22:37:11.508Z,80.70
2017-12-13T22:39:39.054Z,81.10
2017-12-13T22:42:06.744Z,80.70
2017-12-13T22:47:02.994Z,81.40
2017-12-13T22:49:30.683Z,80.30
2017-12-13T22:51:58.309Z,81.10
2017-12-13T22:54:25.925Z,81.10
2017-12-13T22:56:53.600Z,82.40
2017-12-13T22:59:21.223Z,82.20
2017-12-13T23:01:48.847Z,88.70
2017-12-13T23:09:25.225Z,80.60
2017-12-13T23:11:52.893Z,80.50
2017-12-13T23:14:20.586Z,81.10
2017-12-13T23:16:48.212Z,81.50
2017-12-13T23:19:15.833Z,79.40
2017-12-13T23:24:25.934Z,80.20
2017-12-13T23:26:53.636Z,80.40
2017-12-13T23:29:21.289Z,78.20
2017-12-13T23:34:17.208Z,78.40
2017-12-13T23:36:44.195Z,77.30
2017-12-13T23:39:12.332Z,72.50
2017-12-13T23:41:40.023Z,71.90
2017-12-13T23:44:07.643Z,74.40
2017-12-13T23:46:35.259Z,74.10
2017-12-13T23:49:02.923Z,72.70
2017-12-13T23:51:30.539Z,68.90
2017-12-13T23:53:58.155Z,72.30
2017-12-13T23:56:25.829Z,72.00
2017-12-13T23:58:53.443Z,70.30
